Lavieen Rose — 3FKN — position and weather

sailwx.info

Track history (hours):
 
Tides and Currents Weather Stations Pressure Air Temp Water Temp Dewpoint Dewpoint Depression Visibility Wind Speed Wind Dir Waves Ship Positions

Lavieen Rose

Last reported at 2017-Dec-04 00:53 UTC. Time now 2017-Dec-11 19:13 UTC.
Position N 33°58' E 129°55'.

Length 179 m; draft 7.3 m.

Type: Cargo ship. MMSI: 357092000.

Date/timePositionNaut miles runAvg speedWind from/ knotsBaromVisibWave heightAir tempDewpointWater temp
2017-Dec-04 00:53N 33°58' E 129°55'411.8
2017-Dec-04 00:30N 33°58' E 130°00'611.9
2017-Dec-04 00:00N 33°59' E 130°08'612.3
2017-Dec-03 23:30N 33°60' E 130°15'612.5
2017-Dec-03 23:00N 34°00' E 130°22'612.7
2017-Dec-03 22:30N 34°01' E 130°30'612.4
2017-Dec-03 22:00N 34°02' E 130°37'612.0
2017-Dec-03 21:30N 34°03' E 130°45'611.4
2017-Dec-03 21:00N 34°00' E 130°51'4 8.0
2017-Dec-03 20:30N 33°57' E 130°52'3 6.6
2017-Dec-03 20:00N 33°56' E 130°56'4 8.4
2017-Dec-03 19:30N 33°59' E 130°60'510.3
2017-Dec-03 19:00N 33°56' E 131°05'5 9.5
2017-Dec-03 18:30N 33°53' E 131°10'4 8.3
2017-Dec-03 18:00N 33°51' E 131°14'611.2
2017-Dec-03 17:30N 33°50' E 131°21'611.7
2017-Dec-03 17:00N 33°49' E 131°28'612.1
2017-Dec-03 16:30N 33°48' E 131°35'611.7
2017-Dec-03 16:00N 33°47' E 131°42'510.8
2017-Dec-03 15:30N 33°45' E 131°48'510.8
2017-Dec-03 15:00N 33°44' E 131°54'611.0
2017-Dec-03 14:29N 33°43' E 132°01'511.4
2017-Dec-03 14:00N 33°42' E 132°08'5 7.8
2017-Dec-03 13:24N 33°43' E 132°13'4 8.6
2017-Dec-03 12:58N 33°45' E 132°17'611.7
2017-Dec-03 12:29N 33°46' E 132°24'611.7
2017-Dec-03 11:59N 33°50' E 132°29'611.9
2017-Dec-03 11:30N 33°53' E 132°35'611.3
2017-Dec-03 10:59N 33°57' E 132°41'511.1
2017-Dec-03 10:30N 34°01' E 132°45'  
2017-Nov-27 05:39N 34°27' E 134°05'215.0
2017-Nov-27 05:30N 34°26' E 134°08'714.8
2017-Nov-27 05:00N 34°24' E 134°16'714.4
2017-Nov-27 04:30N 34°26' E 134°24'714.5
2017-Nov-27 04:01N 34°28' E 134°33'714.7
2017-Nov-27 03:31N 34°31' E 134°41'714.8
2017-Nov-27 03:01N 34°34' E 134°49'713.7
2017-Nov-27 02:30N 34°37' E 134°56'611.3
2017-Nov-27 02:00N 34°36' E 135°03'5 9.4
2017-Nov-27 01:30N 34°34' E 135°08'510.5
2017-Nov-27 01:00N 34°29' E 135°07'612.2
2017-Nov-27 00:30N 34°24' E 135°03'612.0
2017-Nov-27 00:00N 34°19' E 134°60'611.2
2017-Nov-26 23:30N 34°13' E 134°59'5 9.8
2017-Nov-26 23:00N 34°08' E 134°60'3 6.4
2017-Nov-26 22:30N 34°05' E 134°59'3 5.4
2017-Nov-26 22:00N 34°02' E 134°59'3 5.2
2017-Nov-26 21:30N 33°60' E 134°59'3 6.0
2017-Nov-26 21:00N 33°57' E 134°59'3 5.9
2017-Nov-26 20:30N 33°54' E 134°59'3 6.2
2017-Nov-26 20:00N 33°50' E 134°60'3 6.4
2017-Nov-26 19:30N 33°47' E 135°00'3 6.2
2017-Nov-26 18:59N 33°44' E 135°01'3 6.1
2017-Nov-26 18:28N 33°41' E 135°02'  
2017-Nov-24 13:09N 34°56' E 139°26'2 9.7
2017-Nov-24 12:54N 34°57' E 139°29'410.1
2017-Nov-24 12:29N 34°59' E 139°33'5 9.9
2017-Nov-24 12:00N 35°02' E 139°38'510.1
2017-Nov-24 11:30N 35°05' E 139°43'510.6
2017-Nov-24 11:00N 35°10' E 139°46'510.0
2017-Nov-24 10:30N 35°15' E 139°46'612.1
2017-Nov-24 10:00N 35°20' E 139°42'611.0
2017-Nov-24 09:30N 35°25' E 139°44'713.2
2017-Nov-24 09:00N 35°29' E 139°50'713.3
2017-Nov-24 08:30N 35°33' E 139°57'612.4
2017-Nov-24 08:00N 35°36' E 140°04'1 2.1
2017-Nov-24 07:29N 35°35' E 140°06'0 0.0
2017-Nov-24 06:59N 35°35' E 140°06'0 0.0
2017-Nov-24 06:26N 35°35' E 140°06'0 0.0
2017-Nov-24 05:56N 35°35' E 140°06'0 0.0
2017-Nov-24 05:29N 35°35' E 140°06'0 0.0
2017-Nov-24 04:59N 35°35' E 140°06'0 0.0
2017-Nov-24 04:23N 35°35' E 140°06'0 0.0
2017-Nov-24 03:56N 35°35' E 140°06'0 0.0
2017-Nov-24 03:23N 35°35' E 140°06'0 0.0
2017-Nov-24 02:59N 35°35' E 140°06'0 0.0
2017-Nov-24 02:26N 35°35' E 140°06'0 0.0
2017-Nov-24 01:59N 35°35' E 140°06'0 0.0
2017-Nov-24 01:29N 35°35' E 140°06'0 0.0
2017-Nov-24 00:59N 35°35' E 140°06'  
Track history (hours):
 
Tides and Currents Weather Stations Pressure Air Temp Water Temp Dewpoint Dewpoint Depression Visibility Wind Speed Wind Dir Waves Ship Positions

Lavieen Rose

Last reported at 2017-Dec-04 00:53 UTC. Time now 2017-Dec-11 19:13 UTC.
Position N 33°58' E 129°55'.

Length 179 m; draft 7.3 m.

Type: Cargo ship. MMSI: 357092000.

Date/timePositionNaut miles runAvg speedWind from/ knotsBaromVisibWave heightAir tempDewpointWater temp
2017-Dec-04 00:53N 33°58' E 129°55'411.8
2017-Dec-04 00:30N 33°58' E 130°00'611.9
2017-Dec-04 00:00N 33°59' E 130°08'612.3
2017-Dec-03 23:30N 33°60' E 130°15'612.5
2017-Dec-03 23:00N 34°00' E 130°22'612.7
2017-Dec-03 22:30N 34°01' E 130°30'612.4
2017-Dec-03 22:00N 34°02' E 130°37'612.0
2017-Dec-03 21:30N 34°03' E 130°45'611.4
2017-Dec-03 21:00N 34°00' E 130°51'4 8.0
2017-Dec-03 20:30N 33°57' E 130°52'3 6.6
2017-Dec-03 20:00N 33°56' E 130°56'4 8.4
2017-Dec-03 19:30N 33°59' E 130°60'510.3
2017-Dec-03 19:00N 33°56' E 131°05'5 9.5
2017-Dec-03 18:30N 33°53' E 131°10'4 8.3
2017-Dec-03 18:00N 33°51' E 131°14'611.2
2017-Dec-03 17:30N 33°50' E 131°21'611.7
2017-Dec-03 17:00N 33°49' E 131°28'612.1
2017-Dec-03 16:30N 33°48' E 131°35'611.7
2017-Dec-03 16:00N 33°47' E 131°42'510.8
2017-Dec-03 15:30N 33°45' E 131°48'510.8
2017-Dec-03 15:00N 33°44' E 131°54'611.0
2017-Dec-03 14:29N 33°43' E 132°01'511.4
2017-Dec-03 14:00N 33°42' E 132°08'5 7.8
2017-Dec-03 13:24N 33°43' E 132°13'4 8.6
2017-Dec-03 12:58N 33°45' E 132°17'611.7
2017-Dec-03 12:29N 33°46' E 132°24'611.7
2017-Dec-03 11:59N 33°50' E 132°29'611.9
2017-Dec-03 11:30N 33°53' E 132°35'611.3
2017-Dec-03 10:59N 33°57' E 132°41'511.1
2017-Dec-03 10:30N 34°01' E 132°45'  
2017-Nov-27 05:39N 34°27' E 134°05'215.0
2017-Nov-27 05:30N 34°26' E 134°08'714.8
2017-Nov-27 05:00N 34°24' E 134°16'714.4
2017-Nov-27 04:30N 34°26' E 134°24'714.5
2017-Nov-27 04:01N 34°28' E 134°33'714.7
2017-Nov-27 03:31N 34°31' E 134°41'714.8
2017-Nov-27 03:01N 34°34' E 134°49'713.7
2017-Nov-27 02:30N 34°37' E 134°56'611.3
2017-Nov-27 02:00N 34°36' E 135°03'5 9.4
2017-Nov-27 01:30N 34°34' E 135°08'510.5
2017-Nov-27 01:00N 34°29' E 135°07'612.2
2017-Nov-27 00:30N 34°24' E 135°03'612.0
2017-Nov-27 00:00N 34°19' E 134°60'611.2
2017-Nov-26 23:30N 34°13' E 134°59'5 9.8
2017-Nov-26 23:00N 34°08' E 134°60'3 6.4
2017-Nov-26 22:30N 34°05' E 134°59'3 5.4
2017-Nov-26 22:00N 34°02' E 134°59'3 5.2
2017-Nov-26 21:30N 33°60' E 134°59'3 6.0
2017-Nov-26 21:00N 33°57' E 134°59'3 5.9
2017-Nov-26 20:30N 33°54' E 134°59'3 6.2
2017-Nov-26 20:00N 33°50' E 134°60'3 6.4
2017-Nov-26 19:30N 33°47' E 135°00'3 6.2
2017-Nov-26 18:59N 33°44' E 135°01'3 6.1
2017-Nov-26 18:28N 33°41' E 135°02'  
2017-Nov-24 13:09N 34°56' E 139°26'2 9.7
2017-Nov-24 12:54N 34°57' E 139°29'410.1
2017-Nov-24 12:29N 34°59' E 139°33'5 9.9
2017-Nov-24 12:00N 35°02' E 139°38'510.1
2017-Nov-24 11:30N 35°05' E 139°43'510.6
2017-Nov-24 11:00N 35°10' E 139°46'510.0
2017-Nov-24 10:30N 35°15' E 139°46'612.1
2017-Nov-24 10:00N 35°20' E 139°42'611.0
2017-Nov-24 09:30N 35°25' E 139°44'713.2
2017-Nov-24 09:00N 35°29' E 139°50'713.3
2017-Nov-24 08:30N 35°33' E 139°57'612.4
2017-Nov-24 08:00N 35°36' E 140°04'1 2.1
2017-Nov-24 07:29N 35°35' E 140°06'0 0.0
2017-Nov-24 06:59N 35°35' E 140°06'0 0.0
2017-Nov-24 06:26N 35°35' E 140°06'0 0.0
2017-Nov-24 05:56N 35°35' E 140°06'0 0.0
2017-Nov-24 05:29N 35°35' E 140°06'0 0.0
2017-Nov-24 04:59N 35°35' E 140°06'0 0.0
2017-Nov-24 04:23N 35°35' E 140°06'0 0.0
2017-Nov-24 03:56N 35°35' E 140°06'0 0.0
2017-Nov-24 03:23N 35°35' E 140°06'0 0.0
2017-Nov-24 02:59N 35°35' E 140°06'0 0.0
2017-Nov-24 02:26N 35°35' E 140°06'0 0.0
2017-Nov-24 01:59N 35°35' E 140°06'0 0.0
2017-Nov-24 01:29N 35°35' E 140°06'0 0.0
2017-Nov-24 00:59N 35°35' E 140°06'  

Dump ship's entire track history